Time;durP1;ratioP1;P1;durP2;ratioP2;P2;SDS_P1;SDS_P2;PMS_P1;PMS_P2;Temp;Humidity;BMP_temperature;BMP_pressure;BME280_temperature;BME280_humidity;BME280_pressure;Samples;Min_cycle;Max_cycle;Signal;HPM_P1;HPM_P2
2022/09/08 00:00:39;;;;;;;4.57;2.10;;;23.90;57.80;;;;;;5095714;28;20459;-74
2022/09/08 00:03:07;;;;;;;3.20;2.00;;;23.90;57.90;;;;;;5095857;28;20447;-74
2022/09/08 00:05:40;;;;;;;5.03;2.30;;;23.80;58.00;;;;;;5095248;28;20455;-74
2022/09/08 00:08:09;;;;;;;8.57;3.20;;;23.80;58.10;;;;;;5094014;28;20995;-74
2022/09/08 00:10:39;;;;;;;4.40;2.43;;;23.80;58.30;;;;;;5094602;28;20487;-74
2022/09/08 00:13:07;;;;;;;7.57;2.70;;;23.80;58.30;;;;;;5095056;28;20447;-74
2022/09/08 00:15:36;;;;;;;11.47;3.80;;;23.70;58.30;;;;;;5094233;28;20507;-71
2022/09/08 00:18:03;;;;;;;12.97;3.47;;;23.70;58.50;;;;;;5093608;28;20496;-70
2022/09/08 00:20:30;;;;;;;12.03;3.10;;;23.70;58.60;;;;;;5093827;28;20444;-70
2022/09/08 00:22:57;;;;;;;16.67;3.83;;;23.70;58.90;;;;;;5096876;28;20450;-70
2022/09/08 00:25:24;;;;;;;16.07;3.60;;;23.70;58.70;;;;;;5096550;28;21002;-70
2022/09/08 00:27:52;;;;;;;14.83;3.20;;;23.70;58.90;;;;;;5096516;28;20513;-70
2022/09/08 00:30:19;;;;;;;11.97;3.40;;;23.70;59.00;;;;;;5096854;28;20447;-70
2022/09/08 00:32:46;;;;;;;13.13;2.60;;;23.70;59.10;;;;;;5096800;28;20449;-70
2022/09/08 00:35:14;;;;;;;12.40;3.40;;;23.70;59.10;;;;;;5096564;28;20468;-70
2022/09/08 00:37:41;;;;;;;14.97;3.80;;;23.70;59.20;;;;;;5096273;28;20448;-70
2022/09/08 00:40:09;;;;;;;25.27;3.83;;;23.70;59.30;;;;;;5096505;28;20444;-70
2022/09/08 00:42:36;;;;;;;17.47;3.93;;;23.70;59.30;;;;;;5096621;28;20832;-70
2022/09/08 00:45:05;;;;;;;14.30;3.40;;;23.70;59.40;;;;;;5096591;28;20529;-70
2022/09/08 00:47:35;;;;;;;11.17;3.33;;;23.70;59.30;;;;;;5095967;28;20448;-71
2022/09/08 00:50:07;;;;;;;19.23;4.43;;;23.60;59.40;;;;;;5096411;28;20433;-70
2022/09/08 00:52:39;;;;;;;13.10;3.37;;;23.60;59.50;;;;;;5096366;28;20433;-71
2022/09/08 00:55:08;;;;;;;10.23;2.93;;;23.50;59.60;;;;;;5096176;28;20841;-71
2022/09/08 00:57:34;;;;;;;10.10;3.43;;;23.60;59.70;;;;;;5096186;28;20836;-70
2022/09/08 01:00:05;;;;;;;10.77;3.20;;;23.60;59.70;;;;;;5095774;28;20456;-71
2022/09/08 01:02:31;;;;;;;9.00;2.90;;;23.50;59.60;;;;;;5096312;28;20460;-70
2022/09/08 01:05:02;;;;;;;8.83;2.70;;;23.50;59.60;;;;;;5096929;28;20443;-71
2022/09/08 01:13:25;;;;;;;5.10;2.30;;;23.50;59.50;;;;;;5095710;28;20530;-70
2022/09/08 01:15:53;;;;;;;6.22;2.10;;;23.50;59.70;;;;;;5095553;28;20443;-70
2022/09/08 01:18:20;;;;;;;2.30;1.83;;;23.40;59.80;;;;;;5095740;28;20217;-70
2022/09/08 01:20:53;;;;;;;4.27;2.20;;;23.40;60.00;;;;;;5095989;28;20452;-70
2022/09/08 01:23:44;;;;;;;6.33;2.80;;;23.40;60.00;;;;;;5097784;28;20850;-72
2022/09/08 01:26:23;;;;;;;5.50;2.10;;;23.40;60.00;;;;;;5097921;28;20437;-72
2022/09/08 01:28:55;;;;;;;4.40;2.23;;;23.40;60.20;;;;;;5097872;28;20475;-74
2022/09/08 01:31:23;;;;;;;4.40;1.80;;;23.40;60.10;;;;;;5097522;28;20440;-74
2022/09/08 01:33:50;;;;;;;3.77;1.97;;;23.40;60.00;;;;;;5097901;28;20458;-74
2022/09/08 01:36:18;;;;;;;3.00;1.77;;;23.30;60.10;;;;;;5097258;28;20892;-74
2022/09/08 01:38:47;;;;;;;3.67;1.67;;;23.30;60.40;;;;;;5097521;28;20529;-73
2022/09/08 01:41:14;;;;;;;7.87;2.20;;;23.30;60.60;;;;;;5097171;28;20452;-73
2022/09/08 01:43:41;;;;;;;4.53;2.03;;;23.30;60.90;;;;;;5097545;28;20444;-73
2022/09/08 01:46:09;;;;;;;2.33;1.90;;;23.20;60.90;;;;;;5097891;28;20439;-74
2022/09/08 01:48:36;;;;;;;5.70;2.27;;;23.20;61.00;;;;;;5097513;28;20464;-73
2022/09/08 01:51:05;;;;;;;6.00;2.27;;;23.20;62.00;;;;;;5097537;28;20452;-73
2022/09/08 01:53:32;;;;;;;4.40;1.93;;;23.10;61.20;;;;;;5097558;28;20448;-73
2022/09/08 01:55:59;;;;;;;4.50;2.10;;;23.20;61.50;;;;;;5097267;28;20475;-74
2022/09/08 01:58:26;;;;;;;4.37;2.10;;;23.10;61.50;;;;;;5097118;28;21053;-74
2022/09/08 02:00:53;;;;;;;3.30;2.03;;;23.20;61.50;;;;;;5097842;28;20823;-73
2022/09/08 02:03:21;;;;;;;9.50;2.40;;;23.10;61.40;;;;;;5096974;28;20439;-73
2022/09/08 02:05:48;;;;;;;4.40;2.03;;;23.10;61.60;;;;;;5097062;28;20943;-73
2022/09/08 02:08:15;;;;;;;4.47;1.80;;;23.10;61.90;;;;;;5097394;28;20464;-73
2022/09/08 02:10:42;;;;;;;3.70;2.00;;;23.10;62.10;;;;;;5096922;28;20432;-73
2022/09/08 02:13:09;;;;;;;7.63;2.03;;;23.10;62.40;;;;;;5097404;28;20483;-73
2022/09/08 02:15:36;;;;;;;5.73;2.30;;;23.10;62.60;;;;;;5096984;28;20480;-74
2022/09/08 02:18:03;;;;;;;8.57;2.80;;;23.00;62.70;;;;;;5097176;28;20472;-73
2022/09/08 02:20:31;;;;;;;10.40;3.13;;;23.00;62.90;;;;;;5096764;28;20475;-74
2022/09/08 02:22:58;;;;;;;8.60;2.40;;;23.00;63.00;;;;;;5096627;28;20994;-73
2022/09/08 02:25:24;;;;;;;7.40;2.80;;;23.00;63.20;;;;;;5095899;28;20440;-73
2022/09/08 02:27:53;;;;;;;10.03;2.50;;;23.00;63.50;;;;;;5094747;28;20488;-72
2022/09/08 02:30:20;;;;;;;7.03;2.60;;;23.00;63.70;;;;;;5095927;28;20456;-72
2022/09/08 02:32:48;;;;;;;15.43;3.10;;;23.00;63.90;;;;;;5096202;28;20452;-73
2022/09/08 02:35:15;;;;;;;15.03;3.20;;;23.00;64.00;;;;;;5096183;28;20995;-73
2022/09/08 02:37:43;;;;;;;8.13;2.20;;;23.00;64.30;;;;;;5096289;28;20824;-73
2022/09/08 02:40:11;;;;;;;15.87;3.50;;;23.00;64.50;;;;;;5096441;28;20444;-73
2022/09/08 02:42:38;;;;;;;11.80;3.30;;;22.90;64.70;;;;;;5096411;28;20437;-74
2022/09/08 02:45:08;;;;;;;12.53;2.93;;;22.90;65.10;;;;;;5096308;28;20448;-73
2022/09/08 02:47:35;;;;;;;8.03;2.30;;;22.90;65.30;;;;;;5096437;28;20506;-73
2022/09/08 02:50:02;;;;;;;10.10;2.97;;;22.80;65.50;;;;;;5096299;28;20444;-73
2022/09/08 02:52:31;;;;;;;9.20;2.97;;;22.80;66.00;;;;;;5095102;28;20468;-73
2022/09/08 02:54:59;;;;;;;9.70;3.67;;;22.70;66.30;;;;;;5095065;28;20814;-73
2022/09/08 02:57:26;;;;;;;10.63;2.87;;;22.70;66.60;;;;;;5094174;28;20448;-71
2022/09/08 02:59:53;;;;;;;14.10;4.30;;;22.70;66.70;;;;;;5094047;28;20444;-71
2022/09/08 03:02:19;;;;;;;11.47;3.50;;;22.70;66.80;;;;;;5093900;28;20817;-71
2022/09/08 03:04:46;;;;;;;9.33;2.70;;;22.70;67.20;;;;;;5093926;28;20459;-71
2022/09/08 03:07:13;;;;;;;7.50;3.73;;;22.60;67.10;;;;;;5094108;28;20820;-71
2022/09/08 03:09:40;;;;;;;10.87;2.70;;;22.60;67.50;;;;;;5094581;28;20468;-71
2022/09/08 03:12:08;;;;;;;10.30;3.10;;;22.60;67.80;;;;;;5094793;28;20444;-72
2022/09/08 03:14:35;;;;;;;7.23;2.80;;;22.60;68.30;;;;;;5094565;28;20443;-72
2022/09/08 03:17:01;;;;;;;4.90;2.63;;;22.50;68.70;;;;;;5094046;28;20490;-72
2022/09/08 03:19:28;;;;;;;9.17;2.60;;;22.50;68.80;;;;;;5093878;28;20471;-72
2022/09/08 03:21:56;;;;;;;6.30;2.23;;;22.50;69.10;;;;;;5093594;28;20482;-71
2022/09/08 03:24:22;;;;;;;4.60;2.27;;;22.40;69.60;;;;;;5093362;28;20949;-71
2022/09/08 03:26:49;;;;;;;8.67;2.60;;;22.40;70.20;;;;;;5093303;28;20936;-71
2022/09/08 03:29:17;;;;;;;7.67;2.40;;;22.30;70.90;;;;;;5093380;28;20487;-71
2022/09/08 03:31:44;;;;;;;4.90;1.97;;;22.20;71.20;;;;;;5093343;28;20451;-71
2022/09/08 03:34:11;;;;;;;3.70;2.30;;;22.20;71.80;;;;;;5093850;28;20442;-71
2022/09/08 03:36:38;;;;;;;3.20;1.93;;;22.10;72.40;;;;;;5093464;28;20471;-71
2022/09/08 03:39:05;;;;;;;4.97;2.33;;;22.00;73.00;;;;;;5093969;28;20476;-70
2022/09/08 03:41:33;;;;;;;5.27;2.00;;;21.90;73.70;;;;;;5094518;28;20452;-70
2022/09/08 03:44:00;;;;;;;4.13;2.17;;;21.80;74.70;;;;;;5093839;28;20503;-70
2022/09/08 03:46:28;;;;;;;2.83;2.20;;;21.80;74.80;;;;;;5093725;28;20443;-70
2022/09/08 03:48:54;;;;;;;5.33;2.20;;;21.70;75.30;;;;;;5093729;28;20537;-71
2022/09/08 03:51:25;;;;;;;4.93;2.57;;;21.70;75.70;;;;;;5093478;28;20447;-71
2022/09/08 03:53:53;;;;;;;3.90;1.80;;;21.70;75.90;;;;;;5093888;28;20874;-71
2022/09/08 03:56:20;;;;;;;3.90;2.70;;;21.70;75.90;;;;;;5096944;28;20464;-71
2022/09/08 03:58:47;;;;;;;3.30;2.37;;;21.70;76.20;;;;;;5098213;28;20488;-71
2022/09/08 04:01:16;;;;;;;2.70;2.10;;;21.70;76.70;;;;;;5097521;28;20448;-71
2022/09/08 04:03:45;;;;;;;6.83;3.30;;;21.70;76.50;;;;;;5097155;28;20443;-71
2022/09/08 04:06:11;;;;;;;7.67;3.70;;;21.70;76.90;;;;;;5097537;28;20447;-71
2022/09/08 04:08:38;;;;;;;5.33;2.90;;;21.70;77.10;;;;;;5097470;28;20478;-71
2022/09/08 04:11:06;;;;;;;3.27;2.97;;;21.60;76.90;;;;;;5097177;28;20447;-71
2022/09/08 04:13:33;;;;;;;5.83;3.60;;;21.70;77.60;;;;;;5097140;28;20455;-70
2022/09/08 04:16:00;;;;;;;6.20;3.23;;;21.70;76.70;;;;;;5097029;28;20498;-71
2022/09/08 04:18:26;;;;;;;7.43;3.80;;;21.70;76.90;;;;;;5096745;28;20845;-71
2022/09/08 04:20:59;;;;;;;5.10;3.57;;;21.70;76.80;;;;;;5096984;28;20467;-71
2022/09/08 04:23:26;;;;;;;6.47;3.40;;;21.70;76.50;;;;;;5096959;28;20455;-71
2022/09/08 04:25:57;;;;;;;6.57;3.80;;;21.70;76.40;;;;;;5097037;28;20446;-71
2022/09/08 04:28:24;;;;;;;10.13;4.90;;;21.80;76.70;;;;;;5096537;28;20472;-71
2022/09/08 04:30:51;;;;;;;9.97;3.90;;;21.80;77.20;;;;;;5097089;28;20447;-71
2022/09/08 04:33:18;;;;;;;5.20;4.50;;;21.70;76.80;;;;;;5098214;28;20815;-72
2022/09/08 04:35:45;;;;;;;5.90;4.20;;;21.70;76.60;;;;;;5097736;28;20480;-71
2022/09/08 04:38:13;;;;;;;5.60;4.00;;;21.70;76.80;;;;;;5097273;28;20495;-71
2022/09/08 04:40:40;;;;;;;6.10;4.10;;;21.70;77.00;;;;;;5097468;28;20443;-71
2022/09/08 04:43:07;;;;;;;6.53;3.97;;;21.70;77.00;;;;;;5096939;28;20443;-71
2022/09/08 04:45:34;;;;;;;5.73;4.27;;;21.70;77.10;;;;;;5096747;28;20475;-71
2022/09/08 04:48:01;;;;;;;6.40;3.77;;;21.70;76.90;;;;;;5096648;28;20999;-71
2022/09/08 04:50:28;;;;;;;4.83;4.37;;;21.70;76.80;;;;;;5096920;28;20459;-71
2022/09/08 04:52:55;;;;;;;9.43;4.80;;;21.70;76.70;;;;;;5097202;28;20459;-71
2022/09/08 04:55:23;;;;;;;6.33;4.50;;;21.70;76.60;;;;;;5097552;28;20456;-71
2022/09/08 04:57:49;;;;;;;8.17;4.23;;;21.70;76.40;;;;;;5097006;28;20859;-72
2022/09/08 05:00:18;;;;;;;6.53;4.13;;;21.70;76.40;;;;;;5096175;28;20956;-72
2022/09/08 05:02:46;;;;;;;5.87;4.23;;;21.70;76.60;;;;;;5096312;28;20448;-72
2022/09/08 05:05:12;;;;;;;7.70;4.43;;;21.70;76.90;;;;;;5096239;28;20440;-72
2022/09/08 05:07:39;;;;;;;6.70;4.50;;;21.70;77.10;;;;;;5095472;28;20861;-71
2022/09/08 05:10:07;;;;;;;7.90;4.13;;;21.70;77.10;;;;;;5096303;28;20443;-71
2022/09/08 05:12:35;;;;;;;4.77;3.70;;;21.80;77.00;;;;;;5096237;28;20448;-71
2022/09/08 05:15:02;;;;;;;7.77;3.83;;;21.70;76.80;;;;;;5096382;28;20481;-70
2022/09/08 05:17:30;;;;;;;3.97;3.40;;;21.80;77.00;;;;;;5096572;28;20483;-70
2022/09/08 05:19:59;;;;;;;4.70;3.33;;;21.70;76.70;;;;;;5096278;28;20456;-70
2022/09/08 05:22:25;;;;;;;6.00;3.80;;;21.70;76.90;;;;;;5096230;28;20507;-69
2022/09/08 05:24:53;;;;;;;5.20;3.20;;;21.70;76.90;;;;;;5096815;28;20452;-69
2022/09/08 05:27:20;;;;;;;8.50;3.53;;;21.60;77.00;;;;;;5095901;28;20463;-70
2022/09/08 05:29:48;;;;;;;3.97;2.60;;;21.60;77.00;;;;;;5095543;28;20956;-69
2022/09/08 05:32:15;;;;;;;6.17;3.10;;;21.60;77.30;;;;;;5095834;28;20455;-69
2022/09/08 05:34:42;;;;;;;6.53;2.67;;;21.60;77.20;;;;;;5095791;28;20444;-69
2022/09/08 05:37:08;;;;;;;5.93;2.80;;;21.60;77.20;;;;;;5095793;28;20480;-70
2022/09/08 05:39:35;;;;;;;3.17;2.20;;;21.60;77.30;;;;;;5095633;28;20480;-68
2022/09/08 05:42:02;;;;;;;5.70;2.63;;;21.60;77.20;;;;;;5094986;28;20463;-68
2022/09/08 05:44:28;;;;;;;5.97;2.87;;;21.60;77.20;;;;;;5095514;28;20457;-68
2022/09/08 05:46:57;;;;;;;5.20;2.67;;;21.60;77.20;;;;;;5095972;28;20468;-70
2022/09/08 05:49:25;;;;;;;6.03;3.17;;;21.60;77.30;;;;;;5095201;28;20463;-70
2022/09/08 05:51:52;;;;;;;5.90;3.47;;;21.60;77.30;;;;;;5095805;28;20448;-70
2022/09/08 05:54:20;;;;;;;9.93;4.13;;;21.60;77.10;;;;;;5095717;28;20459;-70
2022/09/08 05:56:46;;;;;;;4.93;3.20;;;21.60;77.20;;;;;;5095358;28;20513;-69
2022/09/08 05:59:13;;;;;;;7.73;4.70;;;21.60;77.30;;;;;;5095347;28;20467;-68
2022/09/08 06:01:40;;;;;;;8.07;4.70;;;21.50;77.50;;;;;;5094905;28;20447;-68
2022/09/08 06:04:08;;;;;;;9.83;5.10;;;21.50;78.70;;;;;;5094970;28;20428;-68
2022/09/08 06:06:35;;;;;;;8.53;3.80;;;21.50;79.70;;;;;;5094737;28;20440;-68
2022/09/08 06:09:03;;;;;;;9.53;5.60;;;21.40;80.20;;;;;;5094724;28;20476;-68
2022/09/08 06:11:32;;;;;;;8.50;5.37;;;21.40;81.10;;;;;;5094327;28;20454;-69
2022/09/08 06:13:59;;;;;;;6.40;5.40;;;21.30;82.10;;;;;;5094571;28;20447;-68
2022/09/08 06:16:26;;;;;;;8.13;5.80;;;21.20;82.80;;;;;;5094792;28;20529;-69
2022/09/08 06:18:53;;;;;;;8.10;6.23;;;21.10;83.50;;;;;;5093740;28;20460;-68
2022/09/08 06:21:24;;;;;;;9.40;6.07;;;21.10;84.40;;;;;;5094662;28;20429;-68
2022/09/08 06:23:53;;;;;;;8.13;5.10;;;21.00;85.20;;;;;;5095606;28;20429;-68
2022/09/08 06:26:31;;;;;;;9.27;5.67;;;20.90;86.00;;;;;;5095770;28;20955;-68
2022/09/08 06:29:06;;;;;;;5.87;4.40;;;20.70;86.70;;;;;;5094206;28;20490;-68
2022/09/08 06:31:38;;;;;;;6.77;4.90;;;20.60;86.90;;;;;;5094523;28;20457;-68
2022/09/08 06:34:12;;;;;;;7.83;4.83;;;20.50;88.00;;;;;;5094585;28;20428;-70
2022/09/08 06:36:46;;;;;;;7.70;4.43;;;20.30;89.30;;;;;;5094341;28;20535;-69
2022/09/08 06:39:18;;;;;;;7.00;4.07;;;20.20;90.20;;;;;;5094346;28;20483;-69
2022/09/08 06:41:50;;;;;;;4.37;3.97;;;20.10;90.60;;;;;;5094540;28;20432;-69
2022/09/08 06:44:21;;;;;;;4.83;3.50;;;19.90;90.90;;;;;;5093922;28;20841;-69
2022/09/08 06:46:48;;;;;;;4.43;3.80;;;19.80;91.20;;;;;;5094179;28;20820;-69
2022/09/08 06:49:15;;;;;;;4.23;3.10;;;19.80;91.30;;;;;;5094144;28;20476;-69
2022/09/08 06:51:55;;;;;;;3.97;3.10;;;19.70;91.60;;;;;;5093837;28;20440;-69
2022/09/08 06:54:35;;;;;;;3.60;2.17;;;19.60;91.80;;;;;;5094012;28;20816;-69
2022/09/08 06:57:16;;;;;;;4.97;2.33;;;19.50;92.00;;;;;;5094229;28;20833;-69
2022/09/08 06:59:54;;;;;;;4.67;2.70;;;19.50;92.10;;;;;;5094119;28;20464;-69
2022/09/08 07:02:40;;;;;;;1.87;1.67;;;19.40;92.40;;;;;;5094019;28;20428;-69
2022/09/08 07:05:26;;;;;;;1.97;1.80;;;19.30;92.00;;;;;;5093895;28;20435;-67
2022/09/08 07:08:03;;;;;;;2.70;1.80;;;19.20;92.40;;;;;;5093837;28;20515;-68
2022/09/08 07:10:34;;;;;;;4.53;2.03;;;19.10;92.50;;;;;;5095490;28;20439;-67
2022/09/08 07:13:08;;;;;;;6.97;2.07;;;19.10;92.90;;;;;;5096315;28;20916;-66
2022/09/08 07:15:50;;;;;;;5.90;2.13;;;19.00;93.20;;;;;;5094187;28;20557;-66
2022/09/08 07:18:21;;;;;;;3.80;2.10;;;19.00;93.80;;;;;;5093651;28;20484;-67
2022/09/08 07:20:48;;;;;;;3.63;1.67;;;18.90;93.90;;;;;;5093354;28;20905;-67
2022/09/08 07:23:20;;;;;;;5.63;2.27;;;18.90;93.90;;;;;;5093669;28;20440;-68
2022/09/08 07:25:55;;;;;;;2.50;2.23;;;18.90;93.90;;;;;;5093693;28;20439;-67
2022/09/08 07:28:25;;;;;;;3.10;2.20;;;18.90;94.10;;;;;;5093335;28;20482;-68
2022/09/08 07:30:56;;;;;;;6.93;2.33;;;18.90;94.10;;;;;;5093490;28;20834;-68
2022/09/08 07:33:28;;;;;;;4.30;2.00;;;19.00;94.30;;;;;;5093495;28;20467;-68
2022/09/08 07:36:02;;;;;;;3.40;1.80;;;19.00;94.40;;;;;;5093284;28;20939;-69
2022/09/08 07:38:37;;;;;;;2.37;1.73;;;19.10;94.50;;;;;;5093351;28;20491;-69
2022/09/08 07:41:07;;;;;;;3.60;1.87;;;19.20;94.00;;;;;;5093675;28;20434;-69
2022/09/08 07:43:33;;;;;;;3.73;1.77;;;19.20;93.90;;;;;;5093794;28;20433;-69
2022/09/08 07:46:24;;;;;;;2.87;1.40;;;19.20;94.00;;;;;;5093367;28;20436;-70
2022/09/08 07:49:01;;;;;;;1.97;1.43;;;19.30;94.20;;;;;;5093374;28;20456;-69
2022/09/08 07:51:34;;;;;;;2.73;1.60;;;19.40;94.10;;;;;;5093499;28;20442;-69
2022/09/08 07:54:17;;;;;;;3.50;1.60;;;19.50;93.80;;;;;;5093477;28;20431;-69
2022/09/08 07:56:52;;;;;;;3.67;1.17;;;19.50;93.70;;;;;;5093357;28;20468;-69
2022/09/08 07:59:28;;;;;;;3.60;1.60;;;19.60;93.50;;;;;;5093416;28;20467;-69
2022/09/08 08:02:05;;;;;;;2.97;2.00;;;19.60;93.30;;;;;;5093028;28;20405;-69
2022/09/08 08:04:56;;;;;;;3.63;1.40;;;19.60;93.60;;;;;;5093452;28;20428;-70
2022/09/08 08:07:31;;;;;;;2.60;1.70;;;19.70;93.70;;;;;;5093404;28;20431;-70
2022/09/08 08:10:09;;;;;;;3.43;2.00;;;19.80;93.40;;;;;;5093292;28;20428;-70
2022/09/08 08:12:44;;;;;;;3.37;1.87;;;20.00;93.50;;;;;;5093482;28;20470;-70
2022/09/08 08:15:18;;;;;;;6.80;2.70;;;20.10;92.90;;;;;;5092961;28;20912;-70
2022/09/08 08:17:52;;;;;;;3.37;2.20;;;20.20;92.60;;;;;;5093663;28;20483;-70
2022/09/08 08:20:32;;;;;;;3.83;2.73;;;20.30;92.80;;;;;;5093814;28;20807;-70
2022/09/08 08:23:20;;;;;;;2.57;2.37;;;20.40;92.80;;;;;;5093173;28;20432;-70
2022/09/08 08:25:58;;;;;;;3.17;2.50;;;20.70;92.10;;;;;;5093380;28;20494;-70
2022/09/08 08:28:25;;;;;;;2.73;2.10;;;20.80;91.80;;;;;;5092873;28;20988;-69
2022/09/08 08:31:02;;;;;;;5.67;2.60;;;20.80;90.40;;;;;;5093210;28;20435;-69
2022/09/08 08:33:33;;;;;;;6.63;3.30;;;20.80;90.70;;;;;;5093158;28;20435;-69
2022/09/08 08:36:04;;;;;;;3.70;1.93;;;20.80;91.10;;;;;;5092784;28;20915;-70
2022/09/08 08:38:36;;;;;;;3.17;2.60;;;20.90;91.40;;;;;;5093060;28;20494;-70
2022/09/08 08:41:10;;;;;;;2.53;2.10;;;21.00;91.90;;;;;;5092776;28;20448;-70
2022/09/08 08:43:51;;;;;;;2.30;2.10;;;21.20;91.40;;;;;;5096592;28;20441;-70
2022/09/08 08:46:42;;;;;;;2.80;1.97;;;21.30;88.90;;;;;;5096483;28;20432;-70
2022/09/08 08:49:43;;;;;;;1.80;1.43;;;21.20;87.90;;;;;;5096405;28;21014;-69
2022/09/08 08:52:28;;;;;;;3.90;1.90;;;21.10;87.20;;;;;;5096182;28;20962;-69
2022/09/08 08:55:09;;;;;;;2.57;1.13;;;21.00;88.40;;;;;;5097082;28;20448;-66
2022/09/08 08:57:52;;;;;;;5.10;1.37;;;21.00;87.20;;;;;;5096839;28;20507;-66
2022/09/08 09:00:21;;;;;;;2.50;1.80;;;21.00;86.30;;;;;;5096845;28;20934;-65
2022/09/08 09:03:18;;;;;;;3.50;1.47;;;21.10;87.10;;;;;;5097427;28;20439;-65
2022/09/08 09:05:57;;;;;;;2.27;1.43;;;21.20;84.40;;;;;;5097002;28;20428;-66
2022/09/08 09:08:54;;;;;;;2.53;1.60;;;21.30;86.10;;;;;;5097169;28;20464;-66
2022/09/08 09:11:44;;;;;;;2.47;1.30;;;21.60;83.20;;;;;;5096597;28;20840;-66
2022/09/08 09:14:41;;;;;;;1.40;1.17;;;22.00;83.60;;;;;;5094035;28;20452;-66
2022/09/08 09:17:27;;;;;;;2.93;1.57;;;22.10;80.90;;;;;;5070198;28;20472;-66
2022/09/08 09:20:18;;;;;;;2.93;1.33;;;22.10;82.10;;;;;;5096595;28;20428;-66
2022/09/08 09:22:53;;;;;;;2.10;1.57;;;22.10;82.60;;;;;;5096388;28;20436;-66
2022/09/08 09:25:28;;;;;;;4.30;1.87;;;22.20;81.90;;;;;;5096592;28;20431;-65
2022/09/08 09:28:17;;;;;;;1.63;1.10;;;22.20;78.80;;;;;;5096116;28;20477;-65
2022/09/08 09:31:03;;;;;;;1.27;1.17;;;22.10;77.10;;;;;;5096157;28;20473;-65
2022/09/08 09:34:02;;;;;;;1.17;0.80;;;22.20;78.20;;;;;;5096120;28;20452;-65
2022/09/08 09:36:44;;;;;;;2.80;1.53;;;22.60;79.00;;;;;;5091636;28;20463;-65
2022/09/08 09:39:43;;;;;;;1.83;1.30;;;22.70;74.70;;;;;;5095408;28;20488;-66
2022/09/08 09:42:32;;;;;;;3.23;1.53;;;22.60;76.00;;;;;;5096332;28;20447;-66
2022/09/08 09:45:43;;;;;;;2.70;1.53;;;22.60;75.40;;;;;;5096131;28;20432;-66
2022/09/08 09:48:52;;;;;;;2.00;1.53;;;22.40;74.80;;;;;;5095974;28;20480;-65
2022/09/08 09:51:34;;;;;;;2.50;1.20;;;22.00;76.10;;;;;;5087983;28;20460;-65
2022/09/08 09:54:16;;;;;;;4.03;1.57;;;22.10;79.50;;;;;;5095709;28;20511;-65
2022/09/08 09:57:24;;;;;;;4.30;1.53;;;22.20;77.70;;;;;;5095591;28;20912;-65
2022/09/08 10:00:12;;;;;;;2.70;1.20;;;22.50;76.00;;;;;;5095269;28;20778;-66
2022/09/08 10:03:14;;;;;;;2.40;1.20;;;22.90;76.30;;;;;;5095229;28;20489;-66
2022/09/08 10:06:05;;;;;;;2.20;1.07;;;23.20;72.60;;;;;;5095222;28;20432;-66
2022/09/08 10:09:16;;;;;;;2.00;1.00;;;23.40;70.40;;;;;;5095322;28;20475;-65
2022/09/08 10:12:20;;;;;;;2.70;0.97;;;23.60;71.30;;;;;;5094800;28;20937;-65
2022/09/08 10:15:18;;;;;;;3.23;1.10;;;23.70;65.10;;;;;;5095295;28;20452;-66
2022/09/08 10:18:21;;;;;;;2.17;1.23;;;23.70;65.60;;;;;;5094939;28;20498;-66
2022/09/08 10:21:08;;;;;;;5.87;1.10;;;23.90;65.20;;;;;;5094902;28;20966;-65
2022/09/08 10:24:12;;;;;;;3.60;1.03;;;24.10;63.80;;;;;;5094846;28;20439;-66
2022/09/08 10:27:06;;;;;;;7.50;1.00;;;24.50;65.00;;;;;;5095153;28;20432;-66
2022/09/08 10:30:03;;;;;;;1.77;1.00;;;25.00;58.10;;;;;;5094583;28;20468;-66
2022/09/08 10:33:17;;;;;;;3.10;1.00;;;25.60;58.50;;;;;;5092422;28;20421;-65
2022/09/08 10:35:46;;;;;;;2.50;0.80;;;25.90;54.30;;;;;;5037532;28;20458;-66
2022/09/08 10:38:45;;;;;;;1.73;1.20;;;26.40;53.60;;;;;;5094392;28;20487;-66
2022/09/08 10:41:36;;;;;;;1.80;0.83;;;27.00;51.30;;;;;;5094909;28;20448;-66
2022/09/08 10:44:16;;;;;;;2.57;0.80;;;27.30;48.90;;;;;;5095679;28;20440;-66
2022/09/08 10:47:08;;;;;;;2.60;1.10;;;27.30;48.50;;;;;;5094650;28;20455;-66
2022/09/08 10:50:03;;;;;;;3.00;0.80;;;27.70;48.60;;;;;;5065643;28;20468;-67
2022/09/08 10:52:32;;;;;;;1.20;0.50;;;27.70;46.70;;;;;;5094624;28;20854;-67
2022/09/08 10:55:28;;;;;;;2.00;0.90;;;27.60;45.80;;;;;;5095717;28;20455;-66
2022/09/08 10:58:13;;;;;;;0.83;0.80;;;27.50;47.50;;;;;;5094713;28;20516;-66
2022/09/08 11:00:52;;;;;;;4.57;0.90;;;28.10;47.30;;;;;;5095192;28;20785;-66
2022/09/08 11:03:39;;;;;;;2.97;1.00;;;28.10;45.60;;;;;;5095443;28;20816;-66
2022/09/08 11:06:09;;;;;;;3.43;1.20;;;27.60;46.70;;;;;;5094877;28;20440;-66
2022/09/08 11:09:12;;;;;;;1.67;1.00;;;27.50;46.40;;;;;;5095300;28;20464;-66
2022/09/08 11:12:16;;;;;;;3.30;1.23;;;27.00;47.30;;;;;;5094440;28;20435;-66
2022/09/08 11:15:12;;;;;;;2.37;1.10;;;26.70;49.00;;;;;;5094550;28;20431;-66
2022/09/08 11:17:46;;;;;;;4.07;1.13;;;27.00;49.60;;;;;;5094528;28;20433;-67
2022/09/08 11:20:20;;;;;;;3.43;1.13;;;27.00;48.30;;;;;;5094890;28;20886;-67
2022/09/08 11:23:13;;;;;;;3.77;1.30;;;26.50;49.10;;;;;;5094406;28;20439;-66
2022/09/08 11:25:58;;;;;;;2.30;1.10;;;25.90;50.80;;;;;;5094738;28;20432;-66
2022/09/08 11:28:52;;;;;;;3.20;1.37;;;25.40;52.70;;;;;;5094564;28;20480;-66
2022/09/08 11:31:32;;;;;;;2.70;1.20;;;25.10;53.60;;;;;;5095459;28;20972;-66
2022/09/08 11:34:42;;;;;;;2.10;0.90;;;25.40;52.80;;;;;;5094478;28;20436;-66
2022/09/08 11:37:36;;;;;;;1.43;1.00;;;26.60;51.40;;;;;;5032348;28;20450;-66
2022/09/08 11:40:32;;;;;;;3.37;0.83;;;27.80;48.50;;;;;;5093985;28;20436;-66
2022/09/08 11:43:23;;;;;;;1.50;0.80;;;28.80;46.00;;;;;;5060772;28;20955;-66
2022/09/08 11:46:06;;;;;;;2.03;0.90;;;30.00;43.00;;;;;;5094463;28;20432;-66
2022/09/08 11:49:06;;;;;;;1.30;0.80;;;30.50;40.70;;;;;;5094125;28;20995;-67
2022/09/08 11:51:51;;;;;;;1.17;0.60;;;30.50;39.60;;;;;;5094300;28;20459;-67
2022/09/08 11:54:48;;;;;;;2.47;0.70;;;30.90;37.30;;;;;;5093216;28;20490;-68
2022/09/08 11:57:31;;;;;;;4.57;0.70;;;31.70;36.00;;;;;;5094355;28;20452;-67
2022/09/08 12:00:17;;;;;;;2.00;0.97;;;31.90;34.60;;;;;;5094809;28;20420;-67
2022/09/08 12:03:30;;;;;;;3.57;0.53;;;32.10;33.10;;;;;;5081821;28;20455;-66
2022/09/08 12:06:32;;;;;;;3.43;0.80;;;32.30;33.50;;;;;;5095386;28;20424;-66
2022/09/08 12:09:10;;;;;;;1.83;0.60;;;32.80;33.60;;;;;;5095857;28;20462;-66
2022/09/08 12:11:55;;;;;;;1.40;0.63;;;32.90;32.10;;;;;;5096466;28;20439;-67
2022/09/08 12:14:33;;;;;;;3.63;1.27;;;33.60;32.20;;;;;;5095438;28;20431;-66
2022/09/08 12:17:10;;;;;;;2.03;0.77;;;34.10;31.80;;;;;;5098348;28;20432;-66
2022/09/08 12:19:50;;;;;;;2.10;0.50;;;33.90;29.60;;;;;;5101599;28;20501;-66
2022/09/08 12:22:30;;;;;;;1.67;0.50;;;33.40;30.30;;;;;;5100587;28;20431;-65
2022/09/08 12:25:17;;;;;;;2.70;0.90;;;33.30;30.00;;;;;;5100797;28;20435;-65
2022/09/08 12:28:01;;;;;;;4.37;0.87;;;33.10;30.70;;;;;;5101944;28;20505;-65
2022/09/08 12:30:34;;;;;;;2.30;0.90;;;33.30;30.50;;;;;;5101032;28;20435;-66
2022/09/08 12:33:26;;;;;;;2.43;0.60;;;33.40;29.40;;;;;;5100286;28;20431;-66
2022/09/08 12:35:56;;;;;;;2.77;0.63;;;34.00;29.60;;;;;;5101244;28;20438;-66
2022/09/08 12:38:53;;;;;;;3.30;1.00;;;34.40;28.60;;;;;;5101377;28;20487;-66
2022/09/08 12:41:41;;;;;;;3.13;0.83;;;34.30;27.70;;;;;;5101433;28;20434;-67
2022/09/08 12:44:19;;;;;;;4.50;0.80;;;34.10;28.30;;;;;;5099665;28;20423;-66
2022/09/08 12:46:58;;;;;;;2.20;1.00;;;34.40;28.50;;;;;;5099760;28;20447;-66
2022/09/08 12:49:39;;;;;;;1.40;0.70;;;34.30;28.40;;;;;;5099216;28;20475;-66
2022/09/08 12:52:14;;;;;;;1.67;0.60;;;34.60;28.10;;;;;;5100642;28;20432;-66
2022/09/08 12:54:55;;;;;;;2.20;0.70;;;34.50;27.80;;;;;;5099317;28;20825;-66
2022/09/08 12:57:54;;;;;;;1.80;0.90;;;34.80;27.50;;;;;;5099807;28;20443;-66
2022/09/08 13:00:26;;;;;;;1.37;0.80;;;35.00;27.10;;;;;;5098780;28;20438;-67
2022/09/08 13:03:28;;;;;;;1.60;0.70;;;35.00;27.50;;;;;;5099382;28;20517;-67
2022/09/08 13:06:26;;;;;;;3.80;0.83;;;34.40;28.00;;;;;;5087692;28;20450;-67
2022/09/08 13:08:59;;;;;;;2.17;0.90;;;33.70;28.60;;;;;;5099111;28;20459;-67
2022/09/08 13:11:47;;;;;;;1.73;0.80;;;33.10;29.40;;;;;;5097646;28;20471;-67
2022/09/08 13:14:15;;;;;;;5.40;1.33;;;33.50;29.90;;;;;;5097450;28;20432;-67
2022/09/08 13:16:54;;;;;;;2.90;0.70;;;34.10;29.40;;;;;;5098746;28;20451;-67
2022/09/08 13:19:28;;;;;;;3.60;0.90;;;33.50;28.50;;;;;;5097673;28;20487;-67
2022/09/08 13:22:16;;;;;;;2.13;0.60;;;32.60;30.50;;;;;;5099031;28;20447;-66
2022/09/08 13:24:59;;;;;;;8.07;1.10;;;32.20;31.20;;;;;;5098397;28;20442;-66
2022/09/08 13:27:35;;;;;;;2.70;1.07;;;31.80;32.00;;;;;;5097180;28;20458;-67
2022/09/08 13:30:14;;;;;;;2.60;1.00;;;31.60;31.90;;;;;;5097389;28;20424;-67
2022/09/08 13:33:10;;;;;;;2.50;0.67;;;31.90;32.10;;;;;;5096687;28;20931;-67
2022/09/08 13:36:02;;;;;;;3.23;0.90;;;32.80;30.70;;;;;;5094470;28;20462;-67